Time;durP1;ratioP1;P1;durP2;ratioP2;P2;SDS_P1;SDS_P2;PMS_P1;PMS_P2;Temp;Humidity;BMP_temperature;BMP_pressure;BME280_temperature;BME280_humidity;BME280_pressure;Samples;Min_cycle;Max_cycle;Signal;HPM_P1;HPM_P2
2023/05/13 00:04:48;;;;;;;5.75;3.35;;;;;;;15.12;69.68;100339.97;10200795;28;20134;-66
2023/05/13 00:09:52;;;;;;;4.03;3.72;;;;;;;15.06;70.61;100338.72;10198365;28;20405;-67
2023/05/13 00:14:53;;;;;;;4.75;4.28;;;;;;;14.99;71.23;100332.28;10201646;28;20103;-67
2023/05/13 00:19:55;;;;;;;4.30;3.88;;;;;;;14.93;71.33;100314.13;10199994;28;20146;-66
2023/05/13 00:24:56;;;;;;;5.40;3.58;;;;;;;14.97;70.92;100318.19;10195598;28;20058;-66
2023/05/13 00:29:58;;;;;;;4.78;3.70;;;;;;;15.00;71.10;100325.94;10210009;28;20427;-66
2023/05/13 00:35:00;;;;;;;3.90;3.60;;;;;;;14.74;70.72;100318.59;10193939;28;20047;-65
2023/05/13 00:40:02;;;;;;;3.58;3.22;;;;;;;14.75;71.14;100320.25;10203334;28;20055;-67
2023/05/13 00:45:05;;;;;;;4.88;3.92;;;;;;;14.87;71.14;100333.47;10197591;28;20070;-66
2023/05/13 00:50:08;;;;;;;4.85;3.40;;;;;;;14.91;70.62;100335.72;10200427;28;20753;-66
2023/05/13 00:55:10;;;;;;;4.95;3.42;;;;;;;14.93;69.73;100336.38;10200565;28;20055;-68
2023/05/13 01:00:13;;;;;;;3.20;2.92;;;;;;;14.94;69.72;100338.09;10198518;28;20057;-66
2023/05/13 01:05:39;;;;;;;4.47;3.00;;;;;;;14.83;69.10;100328.41;10200753;28;20055;-66
2023/05/13 01:10:56;;;;;;;5.88;3.38;;;;;;;14.95;69.24;100341.59;10190633;28;20058;-66
2023/05/13 01:16:02;;;;;;;4.20;3.80;;;;;;;14.94;69.32;100337.25;10198618;28;20145;-67
2023/05/13 01:21:06;;;;;;;3.83;3.53;;;;;;;14.89;69.61;100332.31;10198439;28;20055;-67
2023/05/13 01:26:08;;;;;;;5.93;3.90;;;;;;;14.94;69.63;100338.09;10198096;28;20051;-66
2023/05/13 01:31:09;;;;;;;3.55;3.35;;;;;;;14.97;70.10;100339.63;10197137;28;20796;-67
2023/05/13 01:36:12;;;;;;;4.05;3.75;;;;;;;14.84;69.57;100323.88;10196937;28;20055;-67
2023/05/13 01:41:14;;;;;;;4.43;3.35;;;;;;;14.91;69.76;100334.88;10193937;28;20133;-66
2023/05/13 01:46:15;;;;;;;4.18;3.78;;;;;;;14.78;69.56;100327.16;10195203;28;20142;-67
2023/05/13 01:51:17;;;;;;;4.28;3.42;;;;;;;14.76;69.41;100332.69;10206848;28;20055;-66
2023/05/13 01:56:20;;;;;;;6.50;3.88;;;;;;;14.80;69.24;100330.53;10192097;28;20210;-66
2023/05/13 02:01:21;;;;;;;3.70;3.40;;;;;;;14.84;69.01;100339.97;10200993;28;20069;-65
2023/05/13 02:06:23;;;;;;;3.80;3.50;;;;;;;14.77;69.00;100334.38;10194745;28;20070;-67
2023/05/13 02:11:25;;;;;;;3.60;3.30;;;;;;;14.73;69.04;100327.63;10195165;28;20808;-66
2023/05/13 02:16:26;;;;;;;4.53;3.25;;;;;;;14.77;69.22;100334.38;10196645;28;20831;-66
2023/05/13 02:21:28;;;;;;;4.10;3.70;;;;;;;14.76;69.15;100327.31;10198658;28;20907;-65
2023/05/13 02:26:30;;;;;;;3.95;3.63;;;;;;;14.77;69.30;100331.69;10209360;28;20047;-65
2023/05/13 02:31:31;;;;;;;4.32;3.70;;;;;;;14.64;68.88;100317.81;10195638;28;20805;-65
2023/05/13 02:36:33;;;;;;;3.83;3.53;;;;;;;14.72;69.08;100338.50;10194989;28;20425;-65
2023/05/13 02:41:36;;;;;;;3.83;3.53;;;;;;;14.60;69.51;100327.09;10198945;28;20147;-66
2023/05/13 02:46:37;;;;;;;3.42;3.13;;;;;;;14.61;69.09;100326.97;10188381;28;20587;-66
2023/05/13 02:51:38;;;;;;;5.40;3.50;;;;;;;14.59;69.10;100330.75;10195882;28;20127;-66
2023/05/13 02:56:40;;;;;;;4.45;4.05;;;;;;;14.58;69.51;100334.44;10193027;28;20149;-66
2023/05/13 03:01:41;;;;;;;4.45;3.47;;;;;;;14.52;69.22;100335.00;10197120;28;20451;-66
2023/05/13 03:06:43;;;;;;;5.75;3.47;;;;;;;14.50;69.26;100327.09;10192814;28;20050;-64
2023/05/13 03:11:45;;;;;;;3.67;3.30;;;;;;;14.42;69.51;100325.16;10194897;28;20046;-65
2023/05/13 03:16:46;;;;;;;5.35;3.20;;;;;;;14.33;69.79;100318.03;10194518;28;20059;-65
2023/05/13 03:21:48;;;;;;;4.28;3.88;;;;;;;14.41;69.86;100328.84;10197076;28;20563;-65
2023/05/13 03:26:50;;;;;;;7.65;3.33;;;;;;;14.33;69.07;100326.06;10198945;28;20080;-66
2023/05/13 03:31:52;;;;;;;5.32;3.90;;;;;;;14.38;68.81;100334.50;10178666;28;20062;-65
2023/05/13 03:36:54;;;;;;;4.80;3.00;;;;;;;14.38;69.08;100339.88;10197919;28;20576;-66
2023/05/13 03:41:55;;;;;;;3.72;3.40;;;;;;;14.30;69.52;100335.22;10193205;28;20059;-65
2023/05/13 03:46:56;;;;;;;4.63;3.80;;;;;;;14.29;69.55;100335.34;10195261;28;21065;-65
2023/05/13 03:51:58;;;;;;;4.75;4.28;;;;;;;14.26;69.83;100335.66;10185223;28;20627;-66
2023/05/13 03:57:00;;;;;;;5.05;4.32;;;;;;;14.18;69.89;100335.56;10195394;28;20062;-65
2023/05/13 04:02:03;;;;;;;5.35;4.30;;;;;;;14.24;70.52;100349.19;10196347;28;20528;-66
2023/05/13 04:07:05;;;;;;;5.03;4.50;;;;;;;14.14;71.20;100335.84;10204520;28;20058;-65
2023/05/13 04:12:06;;;;;;;5.18;4.68;;;;;;;14.19;71.54;100345.28;10200181;28;20059;-65
2023/05/13 04:17:08;;;;;;;5.80;5.30;;;;;;;14.13;71.82;100341.34;10201554;28;20156;-64
2023/05/13 04:22:10;;;;;;;4.55;4.13;;;;;;;14.13;71.42;100358.22;10188333;28;20114;-65
2023/05/13 04:27:11;;;;;;;5.03;4.63;;;;;;;14.21;71.71;100354.00;10217118;28;20051;-65
2023/05/13 04:32:16;;;;;;;4.18;3.88;;;;;;;14.09;72.02;100351.47;10203600;28;20474;-63
2023/05/13 04:37:18;;;;;;;5.50;4.80;;;;;;;14.25;72.19;100376.81;10202421;28;20047;-65
2023/05/13 04:42:19;;;;;;;4.47;4.05;;;;;;;14.28;71.57;100365.81;10202734;28;20571;-65
2023/05/13 04:47:21;;;;;;;4.70;3.97;;;;;;;14.28;71.87;100369.34;10203285;28;21450;-64
2023/05/13 04:52:23;;;;;;;4.38;4.00;;;;;;;14.27;72.08;100381.03;10203646;28;20042;-65
2023/05/13 04:57:24;;;;;;;4.68;4.25;;;;;;;14.23;71.62;100363.59;10210000;28;20051;-65
2023/05/13 05:02:28;;;;;;;5.72;3.80;;;;;;;14.31;72.00;100373.56;10205770;28;20141;-65
2023/05/13 05:07:31;;;;;;;4.85;4.03;;;;;;;14.39;72.03;100381.69;10198185;28;20055;-64
2023/05/13 05:12:35;;;;;;;4.45;4.07;;;;;;;14.40;71.75;100375.38;10199344;28;20388;-65
2023/05/13 05:17:36;;;;;;;4.60;4.20;;;;;;;14.49;72.25;100395.91;10208480;28;20138;-65
2023/05/13 05:22:40;;;;;;;4.35;3.95;;;;;;;14.52;72.02;100393.91;10202997;28;20264;-65
2023/05/13 05:27:42;;;;;;;4.67;4.27;;;;;;;14.41;71.99;100377.06;10211111;28;20055;-65
2023/05/13 05:32:43;;;;;;;7.82;4.43;;;;;;;14.52;72.24;100385.88;10180967;28;20656;-65
2023/05/13 05:37:45;;;;;;;4.30;3.90;;;;;;;14.68;72.96;100404.91;10199756;28;20198;-65
2023/05/13 05:42:46;;;;;;;6.82;3.70;;;;;;;14.58;72.50;100385.34;10199805;28;20061;-65
2023/05/13 05:47:48;;;;;;;4.15;3.85;;;;;;;14.70;71.18;100397.56;10202652;28;20047;-65
2023/05/13 05:52:50;;;;;;;3.85;3.55;;;;;;;14.77;71.42;100404.03;10201589;28;20055;-66
2023/05/13 05:57:52;;;;;;;7.25;4.00;;;;;;;14.98;70.96;100419.91;10198954;28;20066;-65
2023/05/13 06:02:53;;;;;;;4.07;3.67;;;;;;;15.08;71.11;100422.50;10201444;28;20043;-66
2023/05/13 06:07:55;;;;;;;7.40;4.70;;;;;;;15.11;70.85;100408.81;10198174;28;20054;-65
2023/05/13 06:12:57;;;;;;;4.43;4.03;;;;;;;15.24;70.02;100403.09;10210751;28;20058;-65
2023/05/13 06:17:59;;;;;;;3.95;3.65;;;;;;;15.33;69.96;100420.13;10201846;28;20077;-65
2023/05/13 06:23:00;;;;;;;3.72;3.15;;;;;;;15.49;68.03;100436.41;10189163;28;20059;-66
2023/05/13 06:28:02;;;;;;;4.32;3.53;;;;;;;15.24;68.88;100394.19;10183317;28;20613;-66
2023/05/13 06:33:04;;;;;;;4.15;3.08;;;;;;;15.56;68.73;100418.69;10166550;28;20074;-65
2023/05/13 06:38:05;;;;;;;3.55;2.92;;;;;;;15.76;68.42;100426.59;10177085;28;20062;-65
2023/05/13 06:43:07;;;;;;;3.30;3.00;;;;;;;15.76;67.55;100434.66;10180619;28;20424;-66
2023/05/13 06:48:09;;;;;;;3.80;3.22;;;;;;;15.81;67.33;100435.06;10184703;28;20102;-65
2023/05/13 06:53:11;;;;;;;3.17;2.65;;;;;;;15.84;66.70;100434.78;10185566;28;20122;-65
2023/05/13 06:58:13;;;;;;;4.15;3.15;;;;;;;16.00;66.97;100434.09;10185030;28;20651;-65
2023/05/13 07:03:15;;;;;;;4.25;3.85;;;;;;;16.05;65.95;100421.03;10167804;28;20054;-65
2023/05/13 07:08:17;;;;;;;3.33;3.03;;;;;;;15.83;65.66;100384.75;10195753;28;20054;-66
2023/05/13 07:13:19;;;;;;;15.57;13.98;;;;;;;16.12;65.29;100431.16;10184436;28;20121;-67
2023/05/13 07:18:21;;;;;;;4.30;3.80;;;;;;;16.30;65.11;100429.25;10179428;28;20139;-67
2023/05/13 07:23:23;;;;;;;3.95;3.08;;;;;;;16.49;63.86;100409.41;10173571;28;20062;-66
2023/05/13 07:28:26;;;;;;;2.65;2.45;;;;;;;16.79;63.31;100426.06;10180690;28;20061;-67
2023/05/13 07:33:27;;;;;;;2.78;2.35;;;;;;;16.80;63.20;100417.00;10173957;28;20753;-67
2023/05/13 07:38:28;;;;;;;3.42;3.10;;;;;;;16.86;61.87;100421.72;10160575;28;20377;-67
2023/05/13 07:43:33;;;;;;;2.90;2.60;;;;;;;16.95;62.93;100422.66;10188097;28;20162;-68
2023/05/13 07:48:35;;;;;;;2.70;2.50;;;;;;;17.03;61.46;100429.91;10186251;28;20055;-68
2023/05/13 07:53:37;;;;;;;3.10;2.70;;;;;;;17.01;61.33;100423.84;10165999;28;20052;-65
2023/05/13 07:58:38;;;;;;;2.65;2.40;;;;;;;17.06;60.89;100433.09;10183973;28;20458;-66
2023/05/13 08:03:40;;;;;;;4.78;2.70;;;;;;;17.10;59.98;100425.56;10189687;28;20052;-67
2023/05/13 08:08:41;;;;;;;3.17;2.75;;;;;;;17.34;61.00;100416.75;10186006;28;20066;-67
2023/05/13 08:13:43;;;;;;;4.80;3.00;;;;;;;17.42;59.69;100426.69;10160420;28;20053;-67
2023/05/13 08:18:44;;;;;;;2.70;2.28;;;;;;;17.71;59.20;100430.78;10181255;28;20055;-68
2023/05/13 08:23:46;;;;;;;3.88;2.65;;;;;;;17.94;57.71;100428.31;10181293;28;20062;-67
2023/05/13 08:28:48;;;;;;;5.32;2.80;;;;;;;18.14;55.51;100412.66;10186487;28;20055;-69
2023/05/13 08:33:54;;;;;;;2.67;2.40;;;;;;;18.37;57.67;100410.97;10187882;28;20134;-68
2023/05/13 08:38:56;;;;;;;2.67;2.45;;;;;;;18.57;58.23;100407.91;10190040;23;20052;-73
2023/05/13 08:43:59;;;;;;;6.00;5.50;;;;;;;18.82;57.05;100399.72;10176056;28;20067;-75
2023/05/13 08:49:01;;;;;;;2.25;2.05;;;;;;;19.15;56.03;100411.25;10218691;28;20050;-71
2023/05/13 08:54:03;;;;;;;2.60;2.05;;;;;;;19.29;55.08;100396.19;10162682;28;20410;-74
2023/05/13 08:59:04;;;;;;;2.38;2.17;;;;;;;19.47;54.85;100414.81;10165054;28;20074;-72
2023/05/13 09:04:08;;;;;;;1.90;1.80;;;;;;;19.55;53.65;100403.13;10161100;28;20062;-70
2023/05/13 09:09:10;;;;;;;;;;;;;;;19.68;53.37;100410.63;10176123;28;20123;-70
2023/05/13 09:14:12;;;;;;;3.80;2.03;;;;;;;19.94;52.11;100404.91;10163145;28;19930;-72
2023/05/13 09:19:14;;;;;;;2.33;2.15;;;;;;;20.04;51.68;100400.09;10206500;28;20553;-70
2023/05/13 09:24:20;;;;;;;3.42;1.85;;;;;;;20.21;51.19;100405.34;10172962;28;20498;-70
2023/05/13 09:29:23;;;;;;;2.10;1.90;;;;;;;20.43;50.73;100401.75;10157223;28;20071;-70
2023/05/13 09:34:29;;;;;;;2.30;1.50;;;;;;;20.73;47.51;100392.84;10156996;28;20170;-72
2023/05/13 09:39:36;;;;;;;3.25;1.50;;;;;;;20.96;43.93;100398.16;10148804;28;20039;-69
2023/05/13 09:44:38;;;;;;;2.42;1.60;;;;;;;21.04;44.35;100389.91;10155069;28;20063;-68
2023/05/13 09:49:40;;;;;;;3.30;2.17;;;;;;;21.37;43.13;100389.47;10151553;28;20547;-71
2023/05/13 09:54:43;;;;;;;1.60;1.50;;;;;;;21.60;43.65;100388.50;10152185;28;20083;-69
2023/05/13 09:59:44;;;;;;;1.87;1.70;;;;;;;21.79;44.39;100374.31;10138895;28;20572;-68
2023/05/13 10:04:46;;;;;;;2.97;1.80;;;;;;;21.85;41.92;100380.81;10150707;28;20171;-70
2023/05/13 10:09:47;;;;;;;4.10;2.03;;;;;;;22.10;44.13;100374.97;10148750;28;20599;-70
2023/05/13 10:14:50;;;;;;;3.05;1.48;;;;;;;22.19;42.96;100366.53;10154017;28;20529;-69
2023/05/13 10:19:53;;;;;;;2.28;2.08;;;;;;;22.23;41.29;100365.09;10152276;28;20079;-69
2023/05/13 10:24:59;;;;;;;3.65;1.90;;;;;;;22.58;43.33;100362.41;10167199;28;20126;-70
2023/05/13 10:30:02;;;;;;;2.03;1.50;;;;;;;23.09;43.94;100354.94;10152628;28;20081;-70
2023/05/13 10:35:13;;;;;;;1.83;1.45;;;;;;;22.82;42.02;100360.25;10154731;28;25042;-70
2023/05/13 10:40:43;;;;;;;3.78;1.73;;;;;;;22.90;41.82;100357.34;10163982;28;20147;-70
2023/05/13 10:45:56;;;;;;;3.15;1.75;;;;;;;23.33;42.37;100347.28;10219371;28;20058;-71
2023/05/13 10:51:06;;;;;;;5.47;2.40;;;;;;;23.29;39.60;100323.28;10190340;28;20047;-71
2023/05/13 10:56:08;;;;;;;3.75;1.95;;;;;;;23.30;39.54;100319.53;10190627;28;20443;-69
2023/05/13 11:01:27;;;;;;;2.60;1.75;;;;;;;23.37;41.22;100329.56;10211239;28;20062;-70
2023/05/13 11:06:33;;;;;;;2.75;1.67;;;;;;;23.07;41.09;100332.56;10219172;28;20059;-70
2023/05/13 11:11:35;;;;;;;4.00;1.67;;;;;;;22.53;42.17;100320.66;10191990;28;20055;-71
2023/05/13 11:16:37;;;;;;;3.03;1.83;;;;;;;22.27;43.38;100318.59;10198458;28;20087;-71
2023/05/13 11:21:39;;;;;;;2.97;1.92;;;;;;;21.98;40.67;100306.91;10202244;28;20070;-72
2023/05/13 11:26:46;;;;;;;3.97;2.10;;;;;;;21.97;41.91;100325.06;10197317;28;20489;-72
2023/05/13 11:31:55;;;;;;;3.03;2.20;;;;;;;21.87;41.48;100336.25;10196991;28;20077;-70
2023/05/13 11:37:02;;;;;;;2.30;2.10;;;;;;;21.62;40.71;100326.84;10203156;28;20583;-70
2023/05/13 11:42:07;;;;;;;3.38;1.77;;;;;;;21.56;38.01;100323.06;10204119;28;20253;-69
2023/05/13 11:47:08;;;;;;;3.67;2.30;;;;;;;21.61;39.32;100322.47;10209363;28;20107;-71
2023/05/13 11:52:14;;;;;;;3.42;2.30;;;;;;;21.88;40.38;100320.81;10206201;28;20640;-70
2023/05/13 11:57:33;;;;;;;2.35;1.90;;;;;;;21.75;40.29;100310.69;10201218;28;20207;-73
2023/05/13 12:02:39;;;;;;;3.83;2.30;;;;;;;21.70;40.63;100318.59;10198637;28;20059;-68
2023/05/13 12:07:41;;;;;;;2.00;1.73;;;;;;;21.60;40.12;100324.31;10200279;28;20082;-70
2023/05/13 12:12:44;;;;;;;2.83;2.00;;;;;;;21.41;38.96;100316.81;10202705;28;20142;-70
2023/05/13 12:17:47;;;;;;;4.95;1.92;;;;;;;21.24;39.32;100303.53;10202650;28;20055;-69
2023/05/13 12:22:51;;;;;;;3.10;2.30;;;;;;;21.42;40.40;100319.34;10199176;28;20126;-69
2023/05/13 12:27:52;;;;;;;3.88;2.00;;;;;;;21.52;40.16;100338.84;10194977;28;20047;-69
2023/05/13 12:32:57;;;;;;;6.38;1.65;;;;;;;21.39;41.21;100333.25;10192373;28;20043;-70
2023/05/13 12:38:03;;;;;;;2.35;1.27;;;;;;;21.31;40.74;100341.50;10193188;28;20060;-69
2023/05/13 12:43:05;;;;;;;2.40;1.02;;;;;;;21.04;42.21;100330.38;10179580;28;20051;-70
2023/05/13 12:48:07;;;;;;;1.67;1.20;;;;;;;20.91;42.50;100346.47;10199059;28;20051;-71
2023/05/13 12:53:08;;;;;;;1.98;1.05;;;;;;;20.61;42.12;100351.84;10196723;28;20150;-70
2023/05/13 12:58:10;;;;;;;1.13;1.02;;;;;;;20.48;42.17;100352.53;10194073;28;20748;-73
2023/05/13 13:03:11;;;;;;;1.75;1.30;;;;;;;20.51;41.99;100367.50;10226604;28;20359;-72
2023/05/13 13:08:13;;;;;;;3.45;1.38;;;;;;;20.31;40.99;100362.66;10191358;28;20320;-70
2023/05/13 13:13:14;;;;;;;1.45;1.25;;;;;;;20.74;41.70;100383.69;10193522;28;20081;-73
2023/05/13 13:18:17;;;;;;;1.95;1.00;;;;;;;20.92;41.30;100380.59;10231183;28;20066;-71
2023/05/13 13:23:18;;;;;;;1.92;1.10;;;;;;;21.07;40.12;100373.31;10225566;28;20225;-71
2023/05/13 13:28:20;;;;;;;1.45;1.23;;;;;;;20.92;40.45;100358.97;10186907;28;20058;-70
2023/05/13 13:33:21;;;;;;;4.22;1.73;;;;;;;20.70;41.96;100356.16;10179489;28;20062;-70
2023/05/13 13:38:23;;;;;;;2.28;1.65;;;;;;;20.64;40.87;100373.13;10187587;28;20059;-71
2023/05/13 13:43:24;;;;;;;2.13;1.75;;;;;;;20.38;41.34;100336.56;10192903;28;26068;-72
2023/05/13 13:48:26;;;;;;;1.85;1.70;;;;;;;20.32;40.98;100348.13;10187925;28;20467;-70
2023/05/13 13:53:27;;;;;;;1.88;1.60;;;;;;;20.24;41.22;100329.31;10192418;28;20533;-70
2023/05/13 13:58:29;;;;;;;2.20;1.70;;;;;;;20.43;40.74;100327.91;10189289;28;20197;-71
2023/05/13 14:03:30;;;;;;;2.20;2.00;;;;;;;20.35;39.49;100320.72;10189294;28;20645;-69
2023/05/13 14:08:32;;;;;;;3.15;2.17;;;;;;;20.40;41.23;100312.91;10190139;28;20077;-70
2023/05/13 14:13:33;;;;;;;2.70;1.42;;;;;;;20.51;40.66;100313.44;10183179;28;20052;-69
2023/05/13 14:18:34;;;;;;;4.05;2.00;;;;;;;20.50;40.67;100307.22;10185584;28;20055;-70
2023/05/13 14:23:37;;;;;;;2.90;1.85;;;;;;;20.57;40.36;100327.06;10191209;28;20272;-69
2023/05/13 14:28:38;;;;;;;2.88;1.50;;;;;;;20.48;39.66;100299.28;10212108;28;20074;-71
2023/05/13 14:33:40;;;;;;;2.15;1.95;;;;;;;20.44;40.06;100306.09;10185302;28;20405;-69
2023/05/13 14:38:42;;;;;;;3.55;2.30;;;;;;;20.56;40.84;100321.84;10190185;28;20989;-70
2023/05/13 14:43:47;;;;;;;3.08;2.22;;;;;;;20.30;39.16;100291.56;10186974;28;20055;-71
2023/05/13 14:48:48;;;;;;;2.47;1.63;;;;;;;20.58;39.19;100319.78;10186710;28;20383;-69
2023/05/13 14:53:50;;;;;;;2.38;1.60;;;;;;;20.52;38.02;100317.84;10194994;28;21230;-72
2023/05/13 14:58:52;;;;;;;4.50;2.00;;;;;;;20.59;38.97;100311.47;10190793;28;20142;-70
2023/05/13 15:03:53;;;;;;;2.22;1.75;;;;;;;20.65;38.29;100302.66;10187854;28;20048;-71
2023/05/13 15:08:55;;;;;;;3.50;1.88;;;;;;;20.65;38.42;100299.09;10193147;28;20089;-71
2023/05/13 15:13:56;;;;;;;3.92;1.95;;;;;;;20.69;39.98;100288.75;10190524;28;20051;-70
2023/05/13 15:18:58;;;;;;;3.40;2.75;;;;;;;20.80;39.90;100280.97;10188154;28;20062;-71
2023/05/13 15:23:59;;;;;;;1.80;1.52;;;;;;;20.87;38.96;100289.19;10191255;28;20158;-71
2023/05/13 15:29:00;;;;;;;3.78;1.83;;;;;;;20.76;40.20;100284.25;10192853;28;20051;-72
2023/05/13 15:34:02;;;;;;;3.70;2.42;;;;;;;20.72;39.38;100278.41;10195157;28;20465;-71
2023/05/13 15:39:03;;;;;;;2.90;2.00;;;;;;;20.89;40.07;100303.38;10224833;28;20530;-69
2023/05/13 15:44:05;;;;;;;6.10;3.03;;;;;;;20.82;40.01;100278.94;10186578;28;20623;-70
2023/05/13 15:49:06;;;;;;;3.70;2.25;;;;;;;20.90;39.85;100296.09;10191312;28;20052;-71
2023/05/13 15:54:07;;;;;;;3.20;2.10;;;;;;;20.87;39.87;100280.22;10188092;28;20104;-72
2023/05/13 15:59:09;;;;;;;2.85;2.53;;;;;;;20.90;40.84;100290.69;10195193;28;20058;-72
2023/05/13 16:04:10;;;;;;;3.45;2.08;;;;;;;20.87;40.95;100272.09;10196910;28;20055;-73
2023/05/13 16:09:12;;;;;;;2.97;1.80;;;;;;;20.94;39.98;100281.16;10196742;28;20062;-71
2023/05/13 16:14:13;;;;;;;2.20;2.00;;;;;;;20.68;41.58;100246.53;10196879;28;20066;-71
2023/05/13 16:19:14;;;;;;;2.28;2.05;;;;;;;20.78;41.90;100272.22;10199265;28;20159;-70
2023/05/13 16:24:16;;;;;;;3.08;2.13;;;;;;;20.61;43.07;100265.31;10199100;28;20047;-68
2023/05/13 16:29:17;;;;;;;2.97;2.47;;;;;;;20.59;42.25;100267.38;10227637;28;20622;-72
2023/05/13 16:34:18;;;;;;;3.00;2.30;;;;;;;20.52;42.80;100270.00;10199389;28;20126;-70
2023/05/13 16:39:20;;;;;;;4.63;2.00;;;;;;;20.52;43.14;100259.19;10212846;28;21459;-69
2023/05/13 16:44:21;;;;;;;2.35;2.15;;;;;;;20.52;43.56;100271.88;10192723;28;20254;-67
2023/05/13 16:49:23;;;;;;;15.00;3.28;;;;;;;20.54;42.91;100262.56;10205590;28;20056;-67
2023/05/13 16:54:24;;;;;;;4.07;2.20;;;;;;;20.58;43.53;100271.13;10192622;28;20047;-67
2023/05/13 16:59:27;;;;;;;5.20;2.65;;;;;;;20.51;43.62;100262.94;10195417;28;20062;-67
2023/05/13 17:04:28;;;;;;;2.88;2.58;;;;;;;20.55;42.35;100260.69;10192004;28;20047;-68
2023/05/13 17:09:30;;;;;;;3.28;2.20;;;;;;;20.54;42.49;100253.63;10191012;28;20138;-68
2023/05/13 17:14:31;;;;;;;2.25;1.80;;;;;;;20.55;42.00;100260.69;10192543;28;20067;-69
2023/05/13 17:19:32;;;;;;;4.63;3.20;;;;;;;20.48;41.98;100250.63;10208011;28;20136;-68
2023/05/13 17:24:34;;;;;;;12.88;8.02;;;;;;;20.40;42.81;100239.91;10190668;28;20459;-69
2023/05/13 17:29:36;;;;;;;6.60;3.55;;;;;;;20.33;42.33;100239.00;10205698;28;20051;-67
2023/05/13 17:34:37;;;;;;;2.95;2.47;;;;;;;20.39;42.09;100257.16;10190036;28;20441;-66
2023/05/13 17:39:39;;;;;;;2.63;2.40;;;;;;;20.33;42.17;100249.81;10193868;28;20150;-67
2023/05/13 17:44:40;;;;;;;3.10;2.80;;;;;;;20.28;41.98;100254.91;10206517;28;20137;-67
2023/05/13 17:49:41;;;;;;;4.00;2.78;;;;;;;20.13;42.35;100246.81;10193360;28;20055;-68
2023/05/13 17:54:43;;;;;;;3.85;2.63;;;;;;;20.13;42.92;100247.66;10224750;28;20066;-67
2023/05/13 17:59:44;;;;;;;4.28;2.42;;;;;;;19.98;43.51;100241.41;10194706;28;20059;-67
2023/05/13 18:04:45;;;;;;;3.67;2.00;;;;;;;19.87;42.95;100260.78;10194824;28;20198;-67
2023/05/13 18:09:47;;;;;;;2.80;2.40;;;;;;;19.46;44.08;100221.47;10191550;28;20477;-67
2023/05/13 18:14:50;;;;;;;4.05;2.38;;;;;;;19.64;44.49;100263.50;10193629;28;20137;-67
2023/05/13 18:19:52;;;;;;;2.35;2.15;;;;;;;19.65;44.98;100276.81;10191371;28;20060;-67
2023/05/13 18:24:53;;;;;;;3.90;2.17;;;;;;;19.58;44.63;100278.56;10195327;28;20179;-67
2023/05/13 18:29:54;;;;;;;4.38;2.38;;;;;;;19.33;44.57;100256.31;10191538;28;20077;-66
2023/05/13 18:34:56;;;;;;;3.25;2.60;;;;;;;19.37;45.53;100285.47;10196193;28;20055;-67
2023/05/13 18:39:58;;;;;;;3.00;2.22;;;;;;;19.32;45.68;100292.41;10192112;28;20130;-66
2023/05/13 18:44:59;;;;;;;2.83;2.47;;;;;;;19.29;45.78;100299.03;10190589;28;20051;-68
2023/05/13 18:50:00;;;;;;;3.15;2.85;;;;;;;19.18;47.00;100291.34;10213980;28;20319;-69
2023/05/13 18:55:03;;;;;;;3.30;2.90;;;;;;;19.19;47.42;100298.44;10215986;28;20082;-67
2023/05/13 19:00:05;;;;;;;4.03;3.17;;;;;;;19.19;47.55;100318.16;10207117;28;20074;-69
2023/05/13 19:05:07;;;;;;;4.65;3.85;;;;;;;19.13;48.41;100320.72;10191671;28;20101;-68
2023/05/13 19:10:09;;;;;;;5.13;3.33;;;;;;;18.94;48.39;100301.25;10185747;28;20518;-66
2023/05/13 19:15:10;;;;;;;4.10;3.67;;;;;;;18.93;48.39;100315.78;10189346;28;20050;-66
2023/05/13 19:20:12;;;;;;;4.57;3.80;;;;;;;18.98;49.24;100334.97;10187080;28;20158;-66
2023/05/13 19:25:13;;;;;;;5.53;4.95;;;;;;;18.86;49.93;100321.03;10190141;28;20051;-67
2023/05/13 19:30:15;;;;;;;5.68;5.13;;;;;;;18.79;49.80;100321.88;10188874;28;20048;-66
2023/05/13 19:35:16;;;;;;;6.93;5.60;;;;;;;18.66;49.88;100314.34;10196598;28;20531;-67
2023/05/13 19:40:17;;;;;;;4.95;4.55;;;;;;;18.52;50.64;100305.97;10194545;28;20053;-65
2023/05/13 19:45:19;;;;;;;7.00;5.70;;;;;;;18.54;50.94;100335.47;10225377;28;20538;-66
2023/05/13 19:50:21;;;;;;;4.88;4.45;;;;;;;18.42;50.87;100331.44;10194171;28;20047;-67
2023/05/13 19:55:22;;;;;;;5.28;4.55;;;;;;;18.25;51.08;100344.13;10195620;28;20130;-66
2023/05/13 20:00:24;;;;;;;5.25;4.18;;;;;;;18.25;51.48;100339.56;10225125;28;20400;-66
2023/05/13 20:05:26;;;;;;;5.43;3.78;;;;;;;18.21;51.70;100338.25;10193401;28;20180;-67
2023/05/13 20:10:28;;;;;;;4.90;3.88;;;;;;;17.94;51.65;100304.44;10206523;28;20043;-66
2023/05/13 20:15:30;;;;;;;4.50;3.90;;;;;;;18.13;52.18;100332.84;10224464;28;20055;-68
2023/05/13 20:20:31;;;;;;;4.38;3.63;;;;;;;18.08;52.20;100337.94;10198656;28;20157;-68
2023/05/13 20:25:32;;;;;;;3.80;3.50;;;;;;;18.15;52.81;100355.06;10198870;28;20449;-67
2023/05/13 20:30:34;;;;;;;4.65;4.22;;;;;;;18.04;53.24;100347.34;10197158;28;20151;-67
2023/05/13 20:35:38;;;;;;;5.32;4.80;;;;;;;17.94;53.73;100331.34;10195884;28;20557;-68
2023/05/13 20:40:40;;;;;;;4.72;4.30;;;;;;;17.97;54.39;100355.25;10188457;28;20061;-66
2023/05/13 20:45:42;;;;;;;4.40;4.00;;;;;;;17.89;54.46;100345.34;10193911;28;20065;-66
2023/05/13 20:50:43;;;;;;;5.18;4.63;;;;;;;17.77;54.57;100333.19;10187046;28;20059;-66
2023/05/13 20:55:44;;;;;;;4.78;4.32;;;;;;;17.70;55.05;100327.66;10227266;28;20258;-67
2023/05/13 21:00:46;;;;;;;4.68;4.28;;;;;;;17.72;55.11;100327.50;10189199;28;20049;-66
2023/05/13 21:05:47;;;;;;;6.63;4.72;;;;;;;17.79;55.25;100350.00;10191398;28;20073;-67
2023/05/13 21:10:49;;;;;;;5.97;4.82;;;;;;;17.73;54.89;100339.91;10195748;28;20230;-66
2023/05/13 21:15:50;;;;;;;5.20;4.70;;;;;;;17.68;54.60;100332.34;10201137;28;20059;-66
2023/05/13 21:20:52;;;;;;;5.45;4.95;;;;;;;17.72;54.61;100338.25;10209848;28;20054;-68
2023/05/13 21:25:53;;;;;;;5.70;4.97;;;;;;;17.59;54.32;100333.34;10195591;28;20569;-67
2023/05/13 21:30:55;;;;;;;5.53;5.00;;;;;;;17.60;54.07;100346.66;10194495;28;20058;-67
2023/05/13 21:35:56;;;;;;;5.07;4.68;;;;;;;17.53;54.39;100339.41;10208390;28;20526;-67
2023/05/13 21:40:58;;;;;;;5.38;4.55;;;;;;;17.49;55.16;100336.22;10224153;28;20522;-67
2023/05/13 21:45:59;;;;;;;5.40;5.00;;;;;;;17.43;55.36;100329.66;10196332;28;20062;-68
2023/05/13 21:51:01;;;;;;;6.85;6.00;;;;;;;17.30;55.37;100319.38;10198556;28;20054;-67
2023/05/13 21:56:02;;;;;;;5.07;4.53;;;;;;;17.25;55.22;100320.88;10192199;28;20051;-68
2023/05/13 22:01:04;;;;;;;4.25;3.72;;;;;;;17.04;55.13;100286.38;10196226;28;20079;-67
2023/05/13 22:06:05;;;;;;;7.85;3.58;;;;;;;17.26;54.60;100326.09;10188769;28;20646;-68
2023/05/13 22:11:07;;;;;;;3.88;3.45;;;;;;;17.16;54.06;100314.66;10191824;28;20055;-67
2023/05/13 22:16:08;;;;;;;2.97;2.63;;;;;;;17.23;53.96;100331.78;10194897;28;20126;-67
2023/05/13 22:21:10;;;;;;;4.07;2.83;;;;;;;17.21;54.03;100328.44;10192104;28;20059;-67
2023/05/13 22:26:11;;;;;;;3.92;3.05;;;;;;;17.09;53.82;100310.94;10195300;28;20104;-67
2023/05/13 22:31:13;;;;;;;4.13;2.58;;;;;;;17.13;54.31;100323.06;10220341;28;20105;-67
2023/05/13 22:36:15;;;;;;;4.93;2.83;;;;;;;17.18;54.12;100336.84;10192083;28;20055;-67
2023/05/13 22:41:19;;;;;;;4.47;3.63;;;;;;;17.16;54.54;100333.47;10204096;28;20056;-67
2023/05/13 22:46:20;;;;;;;4.40;3.17;;;;;;;17.14;54.48;100330.09;10194029;28;20055;-67
2023/05/13 22:51:22;;;;;;;3.30;3.00;;;;;;;17.09;54.95;100327.91;10224684;28;20071;-65
2023/05/13 22:56:23;;;;;;;3.40;3.10;;;;;;;16.94;55.55;100308.88;10190439;28;20069;-67
2023/05/13 23:01:25;;;;;;;4.43;3.63;;;;;;;16.94;56.19;100325.00;10190454;28;22913;-68
2023/05/13 23:06:26;;;;;;;4.00;3.33;;;;;;;16.82;56.91;100307.47;10188284;28;20472;-67
2023/05/13 23:11:27;;;;;;;5.15;4.65;;;;;;;16.75;57.37;100309.09;10193702;28;20051;-67